createdAt,value
2022-12-18T00:04:31.754Z,-9.12
2022-12-18T00:09:39.769Z,-7.96
2022-12-18T00:14:42.511Z,-8.95
2022-12-18T00:19:44.081Z,-7.92
2022-12-18T00:24:45.642Z,-7.20
2022-12-18T00:29:47.246Z,-7.16
2022-12-18T00:34:48.833Z,-8.44
2022-12-18T00:39:50.759Z,-7.61
2022-12-18T00:44:52.674Z,-7.55
2022-12-18T00:49:54.371Z,-7.48
2022-12-18T00:54:56.030Z,-7.19
2022-12-18T00:59:57.622Z,-7.43
2022-12-18T01:04:59.209Z,-7.04
2022-12-18T01:10:00.857Z,-7.65
2022-12-18T01:15:03.401Z,-7.95
2022-12-18T01:20:05.854Z,-7.73
2022-12-18T01:25:07.905Z,-7.82
2022-12-18T01:30:10.310Z,-8.33
2022-12-18T01:35:11.894Z,-7.80
2022-12-18T01:40:13.885Z,-7.70
2022-12-18T01:45:15.436Z,-8.12
2022-12-18T01:50:29.744Z,-8.24
2022-12-18T01:55:36.194Z,-8.68
2022-12-18T02:00:37.892Z,-7.51
2022-12-18T02:06:05.471Z,-7.43
2022-12-18T02:11:50.419Z,-7.86
2022-12-18T02:16:54.845Z,-7.50
2022-12-18T02:22:02.433Z,-7.32
2022-12-18T02:27:07.618Z,-7.44
2022-12-18T02:32:18.857Z,-7.46
2022-12-18T02:37:21.946Z,-7.20
2022-12-18T02:42:24.366Z,-7.05
2022-12-18T02:47:32.337Z,-7.41
2022-12-18T02:52:49.559Z,-8.11
2022-12-18T02:57:55.033Z,-7.61
2022-12-18T03:03:06.419Z,-7.34
2022-12-18T03:08:35.057Z,-7.45
2022-12-18T03:13:49.331Z,-7.21
2022-12-18T03:18:56.042Z,-7.29
2022-12-18T03:23:58.148Z,-7.50
2022-12-18T03:29:10.090Z,-6.91
2022-12-18T03:34:18.871Z,-7.35
2022-12-18T03:39:21.153Z,-8.18
2022-12-18T03:44:49.084Z,-7.86
2022-12-18T03:50:00.402Z,-7.15
2022-12-18T03:55:04.477Z,-7.63
2022-12-18T04:00:11.702Z,-7.06
2022-12-18T04:05:15.336Z,-7.79
2022-12-18T04:10:18.374Z,-7.37
2022-12-18T04:15:20.151Z,-6.93
2022-12-18T04:20:21.734Z,-6.65
2022-12-18T04:25:23.418Z,-8.00
2022-12-18T04:30:25.030Z,-7.30
2022-12-18T04:35:26.754Z,-8.05
2022-12-18T04:40:28.478Z,-7.78
2022-12-18T04:45:31.809Z,-9.26
2022-12-18T04:50:33.583Z,-8.31
2022-12-18T04:55:35.178Z,-7.45
2022-12-18T05:00:36.753Z,-7.90
2022-12-18T05:05:38.666Z,-8.67
2022-12-18T05:10:40.242Z,-7.77
2022-12-18T05:15:42.914Z,-8.54
2022-12-18T05:20:44.549Z,-7.57
2022-12-18T05:26:00.922Z,-7.89
2022-12-18T05:31:04.855Z,-9.32
2022-12-18T05:36:08.828Z,-6.82
2022-12-18T05:41:10.830Z,-7.42
2022-12-18T05:46:15.892Z,-7.89
2022-12-18T05:51:21.273Z,-8.85
2022-12-18T05:56:24.026Z,-7.76
2022-12-18T06:01:27.496Z,-8.04
2022-12-18T06:06:29.906Z,-8.50
2022-12-18T06:11:31.473Z,-7.41
2022-12-18T06:16:33.655Z,-7.65
2022-12-18T06:21:35.504Z,-7.35
2022-12-18T06:26:39.963Z,-7.49
2022-12-18T06:31:41.716Z,-8.31
2022-12-18T06:36:43.368Z,-7.18
2022-12-18T06:41:45.758Z,-7.69
2022-12-18T06:46:47.529Z,-6.90
2022-12-18T06:51:49.206Z,-6.64
2022-12-18T06:56:50.804Z,-7.08
2022-12-18T07:01:52.716Z,-6.55
2022-12-18T07:06:56.008Z,-7.04
2022-12-18T07:11:57.704Z,-7.15
2022-12-18T07:16:59.801Z,-8.29
2022-12-18T07:22:02.563Z,-7.51
2022-12-18T07:27:04.690Z,-6.68
2022-12-18T07:32:08.101Z,-7.42
2022-12-18T07:37:10.679Z,-7.15
2022-12-18T07:42:31.045Z,-7.32
2022-12-18T07:47:35.704Z,-7.77
2022-12-18T07:52:37.330Z,-6.63
2022-12-18T07:57:50.552Z,-7.31
2022-12-18T08:02:54.399Z,-6.74
2022-12-18T08:07:57.021Z,-7.07
2022-12-18T08:13:03.151Z,-7.49
2022-12-18T08:18:10.092Z,-6.98
2022-12-18T08:23:14.418Z,-8.20
2022-12-18T08:28:16.038Z,-8.19
2022-12-18T08:33:17.675Z,-7.84
2022-12-18T08:38:19.383Z,-8.19
2022-12-18T08:43:41.022Z,-8.02
2022-12-18T08:48:42.924Z,-7.07
2022-12-18T08:53:45.532Z,-8.21
2022-12-18T08:58:47.531Z,-7.34
2022-12-18T09:03:50.430Z,-6.87
2022-12-18T09:08:52.119Z,-6.24
2022-12-18T09:13:54.923Z,-7.46
2022-12-18T09:19:00.562Z,-6.90
2022-12-18T09:24:02.393Z,-8.68
2022-12-18T09:29:04.778Z,-7.76
2022-12-18T09:34:06.386Z,-7.60
2022-12-18T09:39:09.009Z,-7.87
2022-12-18T09:44:19.610Z,-8.20
2022-12-18T09:49:24.794Z,-8.31
2022-12-18T09:54:44.723Z,-7.80
2022-12-18T09:59:54.082Z,-8.46
2022-12-18T10:05:06.453Z,-7.04
2022-12-18T10:10:27.647Z,-7.32
2022-12-18T10:15:58.719Z,-7.01
2022-12-18T10:21:24.938Z,-7.63
2022-12-18T10:26:26.818Z,-6.41
2022-12-18T10:31:28.649Z,-7.67
2022-12-18T10:36:30.678Z,-7.12
2022-12-18T10:41:33.382Z,-6.88
2022-12-18T10:46:35.374Z,-7.91
2022-12-18T10:51:38.963Z,-6.30
2022-12-18T10:56:41.481Z,-8.52
2022-12-18T11:06:25.382Z,-7.61
2022-12-18T11:11:27.798Z,-8.79
2022-12-18T11:16:34.001Z,-7.81
2022-12-18T11:21:42.055Z,-8.94
2022-12-18T11:26:44.435Z,-8.01
2022-12-18T11:31:46.240Z,-7.84
2022-12-18T11:36:49.551Z,-7.26
2022-12-18T11:42:11.093Z,-7.46
2022-12-18T11:47:16.886Z,-7.10
2022-12-18T11:52:40.045Z,-7.02
2022-12-18T11:58:07.446Z,-7.65
2022-12-18T12:03:25.476Z,-7.48
2022-12-18T12:08:36.166Z,-7.11
2022-12-18T12:14:10.238Z,-7.75
2022-12-18T12:19:11.752Z,-6.92
2022-12-18T12:24:46.947Z,-7.24
2022-12-18T12:30:08.773Z,-8.23
2022-12-18T12:35:17.923Z,-8.00
2022-12-18T12:40:50.106Z,-6.71
2022-12-18T12:46:10.017Z,-8.12
2022-12-18T12:51:22.365Z,-7.54
2022-12-18T12:56:28.399Z,-7.94
2022-12-18T13:01:49.213Z,-7.59
2022-12-18T13:07:04.798Z,-7.35
2022-12-18T13:12:34.857Z,-7.42
2022-12-18T13:17:36.782Z,-7.38
2022-12-18T13:22:50.040Z,-7.72
2022-12-18T13:28:05.356Z,-7.67
2022-12-18T13:33:18.747Z,-6.42
2022-12-18T13:38:32.245Z,-8.29
2022-12-18T13:43:37.915Z,-7.92
2022-12-18T13:48:40.079Z,-8.23
2022-12-18T13:53:50.677Z,-9.26
2022-12-18T13:59:18.585Z,-7.76
2022-12-18T14:04:24.870Z,-7.55
2022-12-18T14:09:30.985Z,-8.23
2022-12-18T14:14:34.382Z,-7.90
2022-12-18T14:19:37.026Z,-7.47
2022-12-18T14:24:38.759Z,-8.21
2022-12-18T14:29:44.060Z,-8.15
2022-12-18T14:34:51.964Z,-7.80
2022-12-18T14:40:10.462Z,-7.12
2022-12-18T14:45:42.236Z,-7.50
2022-12-18T14:50:46.010Z,-7.34
2022-12-18T14:55:49.053Z,-6.97
2022-12-18T15:00:51.086Z,-7.32
2022-12-18T15:05:52.832Z,-7.53
2022-12-18T15:10:54.557Z,-6.61
2022-12-18T15:16:02.460Z,-7.93
2022-12-18T15:21:11.994Z,-7.71
2022-12-18T15:26:17.180Z,-6.87
2022-12-18T15:31:32.188Z,-7.31
2022-12-18T15:36:37.458Z,-7.72
2022-12-18T15:41:39.346Z,-7.32
2022-12-18T15:46:40.995Z,-7.48
2022-12-18T15:51:43.095Z,-8.20
2022-12-18T15:57:03.331Z,-8.11
2022-12-18T16:02:17.157Z,-7.42
2022-12-18T16:07:24.562Z,-6.84
2022-12-18T16:12:27.404Z,-6.52
2022-12-18T16:17:29.085Z,-7.00
2022-12-18T16:22:31.446Z,-7.05
2022-12-18T16:27:33.019Z,-5.98
2022-12-18T16:32:34.580Z,-6.63
2022-12-18T16:37:36.221Z,-5.72
2022-12-18T16:42:40.267Z,-5.61
2022-12-18T16:47:42.161Z,-5.59
2022-12-18T16:52:43.995Z,-5.20
2022-12-18T16:57:45.603Z,-6.42
2022-12-18T17:02:47.870Z,-5.62
2022-12-18T17:07:49.671Z,-5.98
2022-12-18T17:12:51.574Z,-5.25
2022-12-18T17:17:53.135Z,-5.33
2022-12-18T17:22:55.643Z,-5.17
2022-12-18T17:27:58.413Z,-6.13
2022-12-18T17:32:59.962Z,-5.32
2022-12-18T17:38:01.785Z,-5.55
2022-12-18T17:43:03.647Z,-4.84
2022-12-18T17:48:06.553Z,-5.17
2022-12-18T17:53:08.126Z,-5.76
2022-12-18T17:58:09.833Z,-6.11
2022-12-18T18:03:11.537Z,-5.80
2022-12-18T18:08:13.536Z,-5.02
2022-12-18T18:13:46.640Z,-6.10
2022-12-18T18:18:48.834Z,-4.57
2022-12-18T18:23:50.419Z,-5.84
2022-12-18T18:28:54.503Z,-5.82
2022-12-18T18:33:57.130Z,-6.12
2022-12-18T18:39:00.623Z,-5.74
2022-12-18T18:44:02.256Z,-5.82
2022-12-18T18:49:05.611Z,-6.12
2022-12-18T18:54:07.311Z,-5.98
2022-12-18T18:59:09.003Z,-5.95
2022-12-18T19:04:10.634Z,-5.42
2022-12-18T19:09:12.632Z,-5.65
2022-12-18T19:14:15.667Z,-5.03
2022-12-18T19:19:23.154Z,-4.84
2022-12-18T19:24:24.990Z,-4.75
2022-12-18T19:29:26.749Z,-4.58
2022-12-18T19:34:28.383Z,-4.97
2022-12-18T19:39:30.066Z,-7.05
2022-12-18T19:44:31.870Z,-6.47
2022-12-18T19:49:33.734Z,-5.18
2022-12-18T19:54:36.420Z,-5.17
2022-12-18T19:59:38.250Z,-4.15
2022-12-18T20:04:41.191Z,-4.42
2022-12-18T20:09:42.863Z,-4.78
2022-12-18T20:14:45.171Z,-4.57
2022-12-18T20:19:46.830Z,-4.49
2022-12-18T20:24:49.570Z,-4.29
2022-12-18T20:29:52.056Z,-4.56
2022-12-18T20:34:53.696Z,-4.36
2022-12-18T20:39:56.333Z,-4.85
2022-12-18T20:44:58.032Z,-5.19
2022-12-18T20:50:00.882Z,-5.00
2022-12-18T20:55:02.550Z,-3.75
2022-12-18T21:00:04.958Z,-5.12
2022-12-18T21:05:06.990Z,-5.94
2022-12-18T21:10:09.032Z,-5.34
2022-12-18T21:15:10.916Z,-5.48
2022-12-18T21:20:17.411Z,-4.33
2022-12-18T21:25:19.890Z,-4.44
2022-12-18T21:30:21.515Z,-4.91
2022-12-18T21:35:23.595Z,-5.16
2022-12-18T21:40:27.664Z,-5.00
2022-12-18T21:45:29.343Z,-4.49
2022-12-18T21:50:30.990Z,-4.25
2022-12-18T21:55:32.643Z,-4.14
2022-12-18T22:00:34.214Z,-3.79
2022-12-18T22:05:36.130Z,-4.74
2022-12-18T22:10:38.229Z,-4.37
2022-12-18T22:15:40.312Z,-3.71
2022-12-18T22:20:42.107Z,-4.44
2022-12-18T22:25:43.841Z,-4.31
2022-12-18T22:30:45.504Z,-3.84
2022-12-18T22:35:47.146Z,-4.24
2022-12-18T22:40:49.403Z,-4.16
2022-12-18T22:45:54.105Z,-3.94
2022-12-18T22:50:58.986Z,-5.14
2022-12-18T22:56:02.324Z,-4.85
2022-12-18T23:01:04.733Z,-5.60
2022-12-18T23:06:08.013Z,-4.68
2022-12-18T23:11:10.371Z,-4.14
2022-12-18T23:16:14.441Z,-4.57
2022-12-18T23:21:19.597Z,-3.80
2022-12-18T23:26:23.514Z,-4.53
2022-12-18T23:31:28.927Z,-3.67
2022-12-18T23:36:31.084Z,-4.22
2022-12-18T23:41:39.343Z,-4.15
2022-12-18T23:46:41.030Z,-4.00
2022-12-18T23:51:42.900Z,-3.81
2022-12-18T23:56:45.187Z,-4.18
